createdAt,value
2022-08-01T00:01:12.214Z,22.53
2022-08-01T00:07:16.239Z,22.54
2022-08-01T00:09:23.625Z,22.55
2022-08-01T00:11:25.877Z,22.55
2022-08-01T00:13:27.294Z,22.55
2022-08-01T00:15:28.630Z,22.55
2022-08-01T00:17:29.922Z,22.52
2022-08-01T00:19:31.228Z,22.49
2022-08-01T00:21:32.579Z,22.47
2022-08-01T00:23:33.911Z,22.43
2022-08-01T00:25:35.209Z,22.41
2022-08-01T00:27:37.587Z,22.39
2022-08-01T00:30:11.966Z,22.39
2022-08-01T00:32:00.995Z,22.38
2022-08-01T00:34:02.350Z,22.36
2022-08-01T00:36:03.690Z,22.37
2022-08-01T00:38:04.992Z,22.37
2022-08-01T00:40:06.391Z,22.38
2022-08-01T00:42:08.256Z,22.42
2022-08-01T00:44:09.636Z,22.48
2022-08-01T00:46:11.005Z,22.41
2022-08-01T00:48:12.323Z,22.42
2022-08-01T00:50:13.671Z,22.43
2022-08-01T00:52:15.023Z,22.43
2022-08-01T00:54:16.511Z,22.43
2022-08-01T00:56:18.264Z,22.42
2022-08-01T00:58:19.595Z,22.43
2022-08-01T01:00:27.233Z,22.41
2022-08-01T01:02:28.919Z,22.42
2022-08-01T01:04:30.250Z,22.42
2022-08-01T01:06:31.572Z,22.41
2022-08-01T01:08:32.918Z,22.40
2022-08-01T01:10:34.311Z,22.41
2022-08-01T01:12:38.714Z,22.40
2022-08-01T01:14:45.673Z,22.40
2022-08-01T01:16:46.993Z,22.40
2022-08-01T01:18:48.362Z,22.38
2022-08-01T01:20:49.703Z,22.45
2022-08-01T01:22:51.007Z,22.52
2022-08-01T01:24:52.302Z,22.57
2022-08-01T01:26:53.831Z,22.57
2022-08-01T01:28:55.148Z,22.57
2022-08-01T01:30:56.456Z,22.58
2022-08-01T01:32:57.763Z,22.58
2022-08-01T01:34:59.150Z,22.56
2022-08-01T01:37:00.605Z,22.55
2022-08-01T01:39:01.947Z,22.55
2022-08-01T01:41:03.580Z,22.58
2022-08-01T01:43:04.894Z,22.57
2022-08-01T01:45:06.197Z,22.57
2022-08-01T01:47:07.604Z,22.60
2022-08-01T01:49:11.185Z,22.62
2022-08-01T01:51:12.559Z,22.63
2022-08-01T01:53:15.175Z,22.65
2022-08-01T01:55:16.741Z,22.63
2022-08-01T01:57:18.277Z,22.63
2022-08-01T01:59:19.921Z,22.61
2022-08-01T02:02:05.280Z,22.62
2022-08-01T02:03:48.472Z,21.72
2022-08-01T02:05:49.779Z,22.62
2022-08-01T02:07:51.135Z,22.60
2022-08-01T02:09:52.475Z,22.59
2022-08-01T02:12:08.238Z,22.59
2022-08-01T02:14:10.519Z,22.59
2022-08-01T02:16:12.323Z,22.60
2022-08-01T02:18:13.761Z,22.61
2022-08-01T02:20:15.135Z,22.61
2022-08-01T02:22:16.446Z,22.59
2022-08-01T02:24:17.759Z,22.57
2022-08-01T02:26:19.072Z,22.56
2022-08-01T02:28:20.448Z,22.55
2022-08-01T02:30:21.765Z,22.54
2022-08-01T02:32:23.126Z,22.57
2022-08-01T02:34:24.478Z,22.63
2022-08-01T02:36:32.468Z,22.65
2022-08-01T02:38:35.625Z,22.63
2022-08-01T02:40:36.923Z,22.62
2022-08-01T02:42:38.950Z,22.63
2022-08-01T02:44:40.267Z,22.62
2022-08-01T02:46:41.574Z,22.61
2022-08-01T02:48:42.924Z,22.60
2022-08-01T02:50:44.289Z,22.60
2022-08-01T02:52:45.590Z,22.59
2022-08-01T02:54:46.976Z,22.59
2022-08-01T02:56:48.293Z,22.59
2022-08-01T02:58:49.662Z,22.59
2022-08-01T03:00:51.802Z,22.59
2022-08-01T03:02:55.934Z,22.58
2022-08-01T03:04:57.349Z,22.58
2022-08-01T03:06:59.575Z,22.59
2022-08-01T03:09:00.941Z,22.60
2022-08-01T03:11:02.336Z,22.58
2022-08-01T03:13:03.634Z,22.58
2022-08-01T03:15:05.160Z,22.57
2022-08-01T03:17:06.661Z,22.57
2022-08-01T03:19:07.967Z,22.59
2022-08-01T03:21:09.323Z,22.59
2022-08-01T03:23:10.713Z,22.60
2022-08-01T03:25:12.046Z,22.61
2022-08-01T03:27:13.388Z,22.59
2022-08-01T03:29:14.896Z,22.59
2022-08-01T03:31:16.199Z,22.59
2022-08-01T03:33:17.563Z,22.58
2022-08-01T03:35:18.878Z,22.58
2022-08-01T03:37:20.178Z,22.57
2022-08-01T03:39:21.490Z,22.58
2022-08-01T03:41:22.948Z,22.57
2022-08-01T03:43:24.255Z,22.50
2022-08-01T03:45:25.555Z,22.48
2022-08-01T03:47:26.857Z,22.44
2022-08-01T03:49:28.543Z,22.41
2022-08-01T03:51:29.919Z,22.39
2022-08-01T03:53:31.258Z,22.37
2022-08-01T03:55:32.594Z,22.36
2022-08-01T03:57:35.747Z,22.38
2022-08-01T03:59:38.800Z,22.40
2022-08-01T04:01:40.164Z,22.46
2022-08-01T04:03:43.017Z,22.48
2022-08-01T04:05:44.643Z,22.47
2022-08-01T04:07:46.011Z,22.48
2022-08-01T04:09:47.324Z,22.46
2022-08-01T04:11:48.641Z,21.54
2022-08-01T04:13:50.014Z,22.46
2022-08-01T04:15:52.027Z,22.46
2022-08-01T04:17:55.032Z,22.45
2022-08-01T04:19:56.379Z,22.47
2022-08-01T04:21:57.696Z,22.47
2022-08-01T04:23:59.031Z,22.46
2022-08-01T04:26:00.384Z,22.47
2022-08-01T04:28:01.686Z,22.48
2022-08-01T04:30:03.027Z,22.47
2022-08-01T04:32:04.669Z,22.48
2022-08-01T04:34:06.202Z,22.50
2022-08-01T04:36:07.527Z,22.50
2022-08-01T04:38:08.834Z,22.49
2022-08-01T04:40:10.910Z,22.48
2022-08-01T04:42:12.246Z,22.52
2022-08-01T04:44:13.568Z,22.52
2022-08-01T04:46:14.875Z,22.51
2022-08-01T04:48:16.191Z,22.50
2022-08-01T04:50:17.549Z,22.49
2022-08-01T04:52:24.785Z,22.52
2022-08-01T04:54:26.374Z,22.52
2022-08-01T04:56:27.674Z,22.51
2022-08-01T04:58:28.978Z,22.53
2022-08-01T05:00:30.905Z,22.51
2022-08-01T05:02:32.353Z,22.50
2022-08-01T05:04:33.675Z,22.50
2022-08-01T05:06:34.983Z,22.49
2022-08-01T05:08:37.282Z,22.47
2022-08-01T05:10:38.668Z,22.47
2022-08-01T05:12:40.011Z,22.47
2022-08-01T05:14:41.349Z,22.47
2022-08-01T05:16:42.806Z,22.47
2022-08-01T05:18:44.119Z,22.48
2022-08-01T05:20:49.087Z,22.47
2022-08-01T05:22:50.431Z,22.46
2022-08-01T05:24:51.815Z,22.47
2022-08-01T05:26:54.651Z,22.46
2022-08-01T05:28:55.951Z,22.46
2022-08-01T05:30:57.638Z,22.47
2022-08-01T05:32:58.958Z,22.47
2022-08-01T05:35:00.570Z,22.48
2022-08-01T05:37:01.970Z,22.48
2022-08-01T05:39:03.277Z,22.51
2022-08-01T05:41:04.639Z,22.53
2022-08-01T05:43:06.190Z,22.52
2022-08-01T05:45:07.498Z,22.55
2022-08-01T05:47:08.900Z,22.56
2022-08-01T05:49:10.337Z,21.50
2022-08-01T05:51:11.659Z,22.57
2022-08-01T05:53:12.963Z,22.61
2022-08-01T05:55:14.355Z,22.60
2022-08-01T05:57:15.735Z,22.61
2022-08-01T05:59:17.041Z,22.60
2022-08-01T06:01:18.447Z,22.59
2022-08-01T06:03:19.752Z,22.58
2022-08-01T06:05:21.075Z,22.58
2022-08-01T06:07:22.689Z,22.61
2022-08-01T06:09:23.991Z,22.63
2022-08-01T06:11:25.390Z,22.69
2022-08-01T06:13:26.686Z,22.70
2022-08-01T06:15:28.006Z,22.72
2022-08-01T06:17:29.354Z,22.71
2022-08-01T06:19:30.675Z,22.71
2022-08-01T06:21:31.972Z,22.73
2022-08-01T06:23:33.287Z,22.64
2022-08-01T06:25:34.635Z,22.31
2022-08-01T06:27:36.322Z,22.20
2022-08-01T06:29:37.643Z,22.25
2022-08-01T06:31:38.963Z,22.11
2022-08-01T06:33:40.285Z,22.02
2022-08-01T06:35:41.678Z,22.00
2022-08-01T06:37:42.993Z,22.03
2022-08-01T06:39:44.315Z,22.04
2022-08-01T06:41:47.942Z,22.00
2022-08-01T06:43:49.542Z,21.92
2022-08-01T06:45:51.015Z,21.87
2022-08-01T06:47:52.488Z,21.91
2022-08-01T06:49:53.802Z,21.93
2022-08-01T06:51:55.143Z,21.89
2022-08-01T06:53:56.495Z,21.88
2022-08-01T06:55:57.824Z,21.93
2022-08-01T06:57:59.175Z,21.93
2022-08-01T07:00:00.480Z,21.94
2022-08-01T07:02:05.053Z,21.97
2022-08-01T07:04:06.633Z,21.92
2022-08-01T07:06:08.020Z,21.87
2022-08-01T07:08:09.335Z,21.93
2022-08-01T07:10:10.744Z,21.97
2022-08-01T07:12:12.378Z,21.98
2022-08-01T07:14:13.707Z,21.96
2022-08-01T07:16:15.074Z,22.00
2022-08-01T07:18:16.420Z,21.99
2022-08-01T07:20:17.730Z,22.01
2022-08-01T07:22:23.495Z,22.09
2022-08-01T07:24:25.016Z,22.13
2022-08-01T07:26:28.500Z,22.20
2022-08-01T07:28:29.844Z,22.30
2022-08-01T07:30:31.179Z,22.38
2022-08-01T07:32:32.632Z,22.45
2022-08-01T07:34:33.946Z,22.59
2022-08-01T07:36:35.256Z,22.40
2022-08-01T07:38:36.611Z,22.16
2022-08-01T07:40:37.932Z,22.04
2022-08-01T07:42:39.282Z,21.97
2022-08-01T07:44:40.599Z,21.95
2022-08-01T07:46:41.907Z,21.93
2022-08-01T07:48:43.279Z,21.87
2022-08-01T07:50:44.651Z,21.86
2022-08-01T07:52:46.083Z,21.78
2022-08-01T07:54:52.124Z,21.77
2022-08-01T07:56:53.671Z,21.76
2022-08-01T07:58:55.013Z,21.75
2022-08-01T08:00:56.360Z,21.72
2022-08-01T08:02:59.833Z,21.72
2022-08-01T08:05:01.284Z,21.71
2022-08-01T08:07:02.628Z,21.72
2022-08-01T08:09:04.050Z,21.69
2022-08-01T08:11:05.358Z,21.68
2022-08-01T08:13:06.675Z,21.72
2022-08-01T08:15:08.114Z,21.69
2022-08-01T08:17:09.474Z,21.70
2022-08-01T08:19:10.778Z,21.68
2022-08-01T08:21:12.520Z,20.90
2022-08-01T08:23:46.229Z,21.70
2022-08-01T08:25:47.530Z,21.78
2022-08-01T08:27:48.868Z,21.83
2022-08-01T08:29:50.193Z,21.93
2022-08-01T08:32:03.775Z,22.00
2022-08-01T08:34:05.482Z,22.06
2022-08-01T08:36:07.018Z,22.06
2022-08-01T08:38:08.683Z,22.02
2022-08-01T08:40:12.644Z,21.93
2022-08-01T08:42:14.098Z,20.94
2022-08-01T08:44:15.833Z,21.76
2022-08-01T08:46:17.392Z,21.75
2022-08-01T08:48:18.689Z,21.75
2022-08-01T08:50:28.766Z,21.75
2022-08-01T08:52:30.083Z,21.80
2022-08-01T08:54:31.884Z,21.94
2022-08-01T08:56:35.275Z,22.02
2022-08-01T08:58:38.604Z,22.07
2022-08-01T09:00:39.962Z,22.02
2022-08-01T09:02:41.262Z,22.00
2022-08-01T09:04:42.655Z,21.96
2022-08-01T09:06:44.466Z,21.89
2022-08-01T09:08:45.879Z,21.84
2022-08-01T09:10:47.268Z,21.82
2022-08-01T09:12:48.635Z,21.88
2022-08-01T09:14:51.314Z,21.90
2022-08-01T09:16:52.891Z,21.91
2022-08-01T09:18:54.208Z,21.87
2022-08-01T09:20:55.518Z,21.88
2022-08-01T09:22:56.862Z,22.37
2022-08-01T09:24:58.179Z,23.10
2022-08-01T09:26:59.574Z,22.32
2022-08-01T09:29:01.311Z,23.33
2022-08-01T09:31:02.721Z,23.54
2022-08-01T09:33:11.256Z,23.74
2022-08-01T09:35:19.311Z,23.76
2022-08-01T09:37:24.179Z,23.70
2022-08-01T09:39:25.702Z,23.77
2022-08-01T09:41:27.004Z,23.74
2022-08-01T09:43:39.368Z,23.76
2022-08-01T09:45:41.657Z,23.70
2022-08-01T09:47:45.322Z,23.70
2022-08-01T09:49:50.385Z,23.67
2022-08-01T09:51:59.411Z,23.64
2022-08-01T09:54:02.205Z,23.41
2022-08-01T09:56:04.079Z,23.05
2022-08-01T09:58:06.055Z,22.80
2022-08-01T10:00:08.057Z,22.70
2022-08-01T10:02:09.575Z,22.98
2022-08-01T10:04:11.546Z,23.22
2022-08-01T10:06:13.088Z,23.37
2022-08-01T10:08:14.471Z,23.40
2022-08-01T10:10:29.043Z,23.44
2022-08-01T10:12:33.103Z,23.47
2022-08-01T10:14:34.448Z,23.49
2022-08-01T10:16:36.018Z,23.70
2022-08-01T10:18:38.132Z,23.76
2022-08-01T10:20:39.718Z,23.71
2022-08-01T10:22:41.864Z,23.84
2022-08-01T10:24:43.222Z,23.75
2022-08-01T10:26:44.656Z,23.77
2022-08-01T10:28:47.159Z,23.75
2022-08-01T10:30:49.331Z,23.96
2022-08-01T10:32:51.345Z,24.14
2022-08-01T10:34:53.025Z,24.15
2022-08-01T10:36:54.351Z,24.16
2022-08-01T10:38:56.367Z,24.01
2022-08-01T10:40:57.699Z,23.95
2022-08-01T10:42:59.075Z,23.76
2022-08-01T10:45:00.579Z,23.83
2022-08-01T10:47:01.890Z,23.92
2022-08-01T10:49:03.641Z,24.03
2022-08-01T10:51:04.999Z,24.08
2022-08-01T10:53:23.902Z,24.27
2022-08-01T10:55:32.679Z,24.33
2022-08-01T10:57:33.979Z,24.36
2022-08-01T10:59:58.905Z,24.42
2022-08-01T11:02:02.507Z,24.26
2022-08-01T11:04:04.161Z,24.13
2022-08-01T11:06:05.638Z,24.02
2022-08-01T11:08:09.684Z,23.86
2022-08-01T11:10:14.993Z,23.60
2022-08-01T11:12:24.832Z,23.40
2022-08-01T11:14:40.610Z,23.28
2022-08-01T11:16:47.822Z,23.21
2022-08-01T11:18:51.035Z,23.16
2022-08-01T11:20:52.348Z,23.13
2022-08-01T11:23:13.709Z,23.14
2022-08-01T11:25:16.306Z,23.14
2022-08-01T11:27:20.533Z,23.13
2022-08-01T11:29:24.760Z,23.11
2022-08-01T11:31:26.088Z,23.08
2022-08-01T11:33:27.711Z,23.07
2022-08-01T11:35:30.918Z,23.03
2022-08-01T11:37:32.219Z,23.01
2022-08-01T11:39:38.704Z,22.99
2022-08-01T11:41:40.603Z,22.98
2022-08-01T11:43:41.908Z,22.98
2022-08-01T11:45:43.334Z,22.97
2022-08-01T11:47:45.426Z,22.96
2022-08-01T11:49:49.329Z,23.01
2022-08-01T11:51:51.030Z,23.05
2022-08-01T11:53:52.340Z,23.09
2022-08-01T11:55:54.918Z,23.11
2022-08-01T11:57:56.228Z,23.14
2022-08-01T12:00:03.954Z,23.17
2022-08-01T12:02:05.771Z,23.16
2022-08-01T12:04:07.146Z,23.11
2022-08-01T12:06:08.520Z,23.08
2022-08-01T12:08:09.855Z,23.06
2022-08-01T12:10:11.217Z,23.04
2022-08-01T12:12:12.687Z,23.03
2022-08-01T12:14:13.993Z,23.02
2022-08-01T12:16:15.495Z,23.00
2022-08-01T12:18:16.823Z,22.97
2022-08-01T12:20:18.128Z,22.95
2022-08-01T12:22:19.448Z,22.93
2022-08-01T12:24:20.815Z,22.91
2022-08-01T12:26:25.815Z,22.88
2022-08-01T12:28:33.471Z,22.86
2022-08-01T12:30:38.687Z,22.84
2022-08-01T12:32:40.058Z,22.83
2022-08-01T12:34:41.356Z,22.83
2022-08-01T12:36:42.686Z,22.81
2022-08-01T12:38:43.990Z,22.79
2022-08-01T12:40:45.941Z,22.77
2022-08-01T12:42:47.423Z,22.74
2022-08-01T12:44:48.768Z,22.95
2022-08-01T12:46:50.071Z,23.05
2022-08-01T12:48:51.418Z,23.09
2022-08-01T12:50:53.509Z,23.14
2022-08-01T12:52:55.079Z,23.17
2022-08-01T12:54:56.436Z,23.19
2022-08-01T12:56:58.187Z,23.22
2022-08-01T12:59:00.199Z,23.31
2022-08-01T13:01:01.554Z,23.39
2022-08-01T13:03:02.918Z,23.46
2022-08-01T13:05:04.267Z,23.48
2022-08-01T13:07:05.686Z,23.48
2022-08-01T13:09:07.256Z,23.48
2022-08-01T13:11:14.927Z,23.46
2022-08-01T13:13:22.338Z,23.43
2022-08-01T13:15:31.969Z,23.40
2022-08-01T13:17:33.499Z,23.38
2022-08-01T13:19:34.796Z,23.39
2022-08-01T13:21:53.652Z,23.37
2022-08-01T13:24:02.956Z,23.36
2022-08-01T13:26:05.398Z,23.43
2022-08-01T13:28:06.760Z,23.49
2022-08-01T13:30:08.067Z,23.65
2022-08-01T13:32:10.130Z,23.66
2022-08-01T13:34:11.503Z,23.57
2022-08-01T13:36:12.821Z,23.70
2022-08-01T13:38:15.336Z,23.77
2022-08-01T13:40:16.638Z,23.80
2022-08-01T13:42:19.515Z,23.83
2022-08-01T13:44:20.966Z,23.85
2022-08-01T13:46:22.280Z,23.75
2022-08-01T13:48:23.594Z,24.24
2022-08-01T13:50:25.320Z,24.59
2022-08-01T13:52:26.666Z,24.77
2022-08-01T13:54:27.978Z,24.61
2022-08-01T13:56:29.476Z,24.50
2022-08-01T13:58:30.815Z,24.44
2022-08-01T14:00:32.115Z,24.43
2022-08-01T14:02:33.659Z,24.46
2022-08-01T14:04:35.047Z,24.46
2022-08-01T14:06:36.356Z,24.42
2022-08-01T14:08:37.691Z,24.46
2022-08-01T14:10:39.014Z,24.43
2022-08-01T14:12:40.996Z,24.40
2022-08-01T14:14:47.274Z,24.37
2022-08-01T14:16:48.795Z,24.36
2022-08-01T14:18:50.099Z,24.37
2022-08-01T14:20:51.583Z,24.37
2022-08-01T14:22:56.264Z,24.18
2022-08-01T14:25:01.518Z,23.87
2022-08-01T14:27:04.806Z,23.71
2022-08-01T14:29:06.132Z,23.62
2022-08-01T14:31:07.540Z,23.57
2022-08-01T14:33:08.876Z,23.54
2022-08-01T14:35:10.273Z,23.54
2022-08-01T14:37:11.666Z,23.55
2022-08-01T14:39:14.946Z,23.53
2022-08-01T14:41:16.458Z,23.53
2022-08-01T14:43:26.207Z,23.49
2022-08-01T14:45:29.659Z,23.46
2022-08-01T14:47:31.078Z,23.44
2022-08-01T14:49:32.479Z,23.44
2022-08-01T14:51:35.421Z,23.44
2022-08-01T14:53:37.732Z,23.45
2022-08-01T14:55:42.121Z,23.43
2022-08-01T14:57:43.630Z,23.42
2022-08-01T14:59:44.988Z,23.42
2022-08-01T15:01:46.303Z,23.40
2022-08-01T15:03:48.967Z,23.37
2022-08-01T15:05:50.316Z,23.67
2022-08-01T15:07:52.573Z,24.07
2022-08-01T15:24:30.007Z,24.23
2022-08-01T15:26:31.328Z,24.49
2022-08-01T15:28:32.710Z,24.57
2022-08-01T15:30:35.637Z,24.61
2022-08-01T15:32:37.321Z,24.62
2022-08-01T15:34:38.661Z,24.60
2022-08-01T15:36:41.998Z,24.71
2022-08-01T15:38:44.999Z,24.72
2022-08-01T15:40:46.367Z,24.65
2022-08-01T15:42:47.742Z,24.21
2022-08-01T15:44:49.768Z,24.55
2022-08-01T15:46:51.098Z,24.63
2022-08-01T15:48:52.535Z,24.81
2022-08-01T15:50:53.970Z,25.08
2022-08-01T15:52:55.355Z,24.62
2022-08-01T15:54:56.651Z,24.22
2022-08-01T15:56:58.113Z,24.43
2022-08-01T15:58:59.439Z,24.92
2022-08-01T16:01:00.759Z,24.91
2022-08-01T16:03:02.059Z,24.86
2022-08-01T16:05:03.476Z,24.78
2022-08-01T16:07:04.780Z,24.80
2022-08-01T16:09:06.138Z,24.81
2022-08-01T16:11:07.486Z,24.69
2022-08-01T16:13:08.889Z,24.70
2022-08-01T16:15:10.207Z,24.46
2022-08-01T16:17:11.558Z,24.39
2022-08-01T16:19:18.999Z,24.12
2022-08-01T16:21:21.027Z,23.93
2022-08-01T16:23:22.335Z,23.81
2022-08-01T16:25:23.642Z,23.75
2022-08-01T16:27:27.260Z,23.69
2022-08-01T16:29:30.851Z,23.66
2022-08-01T16:32:02.344Z,23.64
2022-08-01T16:33:57.115Z,23.80
2022-08-01T16:36:03.740Z,24.28
2022-08-01T16:38:05.364Z,24.53
2022-08-01T16:40:06.672Z,24.64
2022-08-01T16:42:08.487Z,24.68
2022-08-01T16:44:09.951Z,24.57
2022-08-01T16:46:11.320Z,24.62
2022-08-01T16:48:12.882Z,24.67
2022-08-01T16:50:14.194Z,24.28
2022-08-01T16:52:18.327Z,23.97
2022-08-01T16:54:24.956Z,23.78
2022-08-01T16:56:27.555Z,23.69
2022-08-01T16:58:28.878Z,23.56
2022-08-01T17:00:30.228Z,23.52
2022-08-01T17:02:31.750Z,23.48
2022-08-01T17:04:33.079Z,23.44
2022-08-01T17:06:34.460Z,22.52
2022-08-01T17:08:35.924Z,23.40
2022-08-01T17:10:48.587Z,23.37
2022-08-01T17:12:49.899Z,23.35
2022-08-01T17:14:51.247Z,23.34
2022-08-01T17:16:52.586Z,23.33
2022-08-01T17:18:53.945Z,23.30
2022-08-01T17:20:55.259Z,23.30
2022-08-01T17:22:56.664Z,23.28
2022-08-01T17:24:57.966Z,23.25
2022-08-01T17:26:59.326Z,23.24
2022-08-01T17:29:00.731Z,23.40
2022-08-01T17:31:02.102Z,23.78
2022-08-01T17:33:03.603Z,24.01
2022-08-01T17:35:05.122Z,24.13
2022-08-01T17:37:06.716Z,24.19
2022-08-01T17:39:09.391Z,24.25
2022-08-01T17:41:10.789Z,24.25
2022-08-01T17:43:12.099Z,24.41
2022-08-01T17:45:28.321Z,24.54
2022-08-01T17:47:49.779Z,24.54
2022-08-01T17:49:55.059Z,24.53
2022-08-01T17:51:56.604Z,24.32
2022-08-01T17:53:58.046Z,24.16
2022-08-01T17:56:00.758Z,24.12
2022-08-01T17:58:05.206Z,23.98
2022-08-01T18:00:06.535Z,23.65
2022-08-01T18:02:07.904Z,23.43
2022-08-01T18:04:12.338Z,23.74
2022-08-01T18:06:14.364Z,24.08
2022-08-01T18:08:17.067Z,24.37
2022-08-01T18:10:20.010Z,24.53
2022-08-01T18:12:21.651Z,24.59
2022-08-01T18:14:32.578Z,24.47
2022-08-01T18:16:42.314Z,24.46
2022-08-01T18:18:43.948Z,24.49
2022-08-01T18:20:45.263Z,24.68
2022-08-01T18:22:46.649Z,24.68
2022-08-01T18:24:47.987Z,24.29
2022-08-01T18:26:49.372Z,24.01
2022-08-01T18:28:55.203Z,23.87
2022-08-01T18:31:03.298Z,23.79
2022-08-01T18:33:04.602Z,23.74
2022-08-01T18:35:10.819Z,23.71
2022-08-01T18:37:16.757Z,22.79
2022-08-01T18:39:20.806Z,23.64
2022-08-01T18:41:22.797Z,23.60
2022-08-01T18:43:24.179Z,23.59
2022-08-01T18:45:25.487Z,23.59
2022-08-01T18:47:26.883Z,23.58
2022-08-01T18:49:28.251Z,23.56
2022-08-01T18:51:29.583Z,23.55
2022-08-01T18:53:30.915Z,23.54
2022-08-01T18:55:32.214Z,23.53
2022-08-01T18:57:33.576Z,23.53
2022-08-01T18:59:34.887Z,23.52
2022-08-01T19:01:40.397Z,23.51
2022-08-01T19:03:42.863Z,23.49
2022-08-01T19:05:44.295Z,23.48
2022-08-01T19:08:06.120Z,23.43
2022-08-01T19:10:07.071Z,23.60
2022-08-01T19:12:08.405Z,23.36
2022-08-01T19:14:09.764Z,23.25
2022-08-01T19:16:11.120Z,23.19
2022-08-01T19:20:42.523Z,23.07
2022-08-01T19:22:43.838Z,23.14
2022-08-01T19:24:45.154Z,23.23
2022-08-01T19:26:46.532Z,23.19
2022-08-01T19:28:47.960Z,23.23
2022-08-01T19:30:53.533Z,23.19
2022-08-01T19:32:55.067Z,23.18
2022-08-01T19:34:57.254Z,23.05
2022-08-01T19:36:58.740Z,23.15
2022-08-01T19:39:00.114Z,23.05
2022-08-01T19:41:03.403Z,23.09
2022-08-01T19:43:04.716Z,23.01
2022-08-01T19:45:06.103Z,23.14
2022-08-01T19:47:07.765Z,22.98
2022-08-01T19:49:09.258Z,22.38
2022-08-01T19:51:10.738Z,22.09
2022-08-01T19:53:12.462Z,22.18
2022-08-01T19:55:13.796Z,22.58
2022-08-01T19:57:15.155Z,22.83
2022-08-01T19:59:16.466Z,22.87
2022-08-01T20:01:17.777Z,22.91
2022-08-01T20:03:19.426Z,22.80
2022-08-01T20:05:20.782Z,22.94
2022-08-01T20:07:22.092Z,22.92
2022-08-01T20:09:23.462Z,22.99
2022-08-01T20:11:24.819Z,22.83
2022-08-01T20:13:26.118Z,22.86
2022-08-01T21:12:25.223Z,21.31
2022-08-01T21:14:26.523Z,21.71
2022-08-01T21:16:30.279Z,22.46
2022-08-01T21:18:31.830Z,22.53
2022-08-01T21:20:33.183Z,22.64
2022-08-01T21:22:34.540Z,21.95
2022-08-01T21:24:35.843Z,22.83
2022-08-01T21:26:37.155Z,22.68
2022-08-01T21:28:38.608Z,22.59
2022-08-01T21:30:39.923Z,22.56
2022-08-01T21:32:42.373Z,22.46
2022-08-01T21:34:43.715Z,21.86
2022-08-01T21:36:45.085Z,21.64
2022-08-01T21:38:46.391Z,22.10
2022-08-01T21:40:47.700Z,22.26
2022-08-01T21:42:49.035Z,22.23
2022-08-01T21:44:50.375Z,22.42
2022-08-01T21:46:51.696Z,22.38
2022-08-01T21:48:53.039Z,22.36
2022-08-01T21:50:54.379Z,22.30
2022-08-01T21:52:55.698Z,22.02
2022-08-01T21:54:58.258Z,22.18
2022-08-01T21:57:01.337Z,22.28
2022-08-01T21:59:02.751Z,22.33
2022-08-01T22:01:05.270Z,22.37
2022-08-01T22:03:06.646Z,22.35
2022-08-01T22:05:07.999Z,22.19
2022-08-01T22:07:09.798Z,22.25
2022-08-01T22:09:11.104Z,22.14
2022-08-01T22:11:12.442Z,22.05
2022-08-01T22:13:13.748Z,22.08
2022-08-01T22:15:15.090Z,21.25
2022-08-01T22:17:16.451Z,21.38
2022-08-01T22:19:44.150Z,21.42
2022-08-01T22:21:39.599Z,21.34
2022-08-01T22:23:40.900Z,21.31
2022-08-01T22:25:42.190Z,21.24
2022-08-01T22:28:05.765Z,21.20
2022-08-01T22:30:05.335Z,21.13
2022-08-01T22:32:06.656Z,21.18
2022-08-01T22:34:07.962Z,21.12
2022-08-01T22:36:09.355Z,21.10
2022-08-01T22:38:10.689Z,21.08
2022-08-01T22:40:11.990Z,21.05
2022-08-01T22:42:13.523Z,21.03
2022-08-01T22:44:15.016Z,20.97
2022-08-01T22:46:17.411Z,20.92
2022-08-01T22:48:18.902Z,20.90
2022-08-01T22:50:34.415Z,20.91
2022-08-01T22:52:39.564Z,20.91
2022-08-01T22:54:40.923Z,20.86
2022-08-01T22:56:42.222Z,20.92
2022-08-01T22:58:43.535Z,20.88
2022-08-01T23:00:44.835Z,20.88
2022-08-01T23:02:46.200Z,20.87
2022-08-01T23:04:47.546Z,20.84
2022-08-01T23:06:48.889Z,20.81
2022-08-01T23:08:50.271Z,20.75
2022-08-01T23:10:51.891Z,20.71
2022-08-01T23:12:53.415Z,20.66
2022-08-01T23:14:55.128Z,20.65
2022-08-01T23:16:56.445Z,20.63
2022-08-01T23:18:57.738Z,20.56
2022-08-01T23:20:59.087Z,20.63
2022-08-01T23:23:00.588Z,20.64
2022-08-01T23:25:03.898Z,20.61
2022-08-01T23:27:25.043Z,20.53
2022-08-01T23:29:46.337Z,20.53
2022-08-01T23:32:00.457Z,20.57
2022-08-01T23:34:04.521Z,20.56
2022-08-01T23:36:05.889Z,20.54
2022-08-01T23:38:07.227Z,20.53
2022-08-01T23:40:08.575Z,20.51
2022-08-01T23:42:10.092Z,20.49
2022-08-01T23:44:11.709Z,20.51
2022-08-01T23:46:13.021Z,20.43
2022-08-01T23:48:14.326Z,20.40
2022-08-01T23:50:15.637Z,20.38
2022-08-01T23:52:20.631Z,20.39
2022-08-01T23:54:22.875Z,20.38
2022-08-01T23:56:26.819Z,20.37
2022-08-01T23:58:28.373Z,20.42
